createdAt,value
2019-01-15T00:02:16.688Z,4.40
2019-01-15T00:04:46.212Z,3.97
2019-01-15T00:07:15.869Z,2.30
2019-01-15T00:09:45.656Z,4.30
2019-01-15T00:12:15.306Z,4.13
2019-01-15T00:14:45.000Z,2.37
2019-01-15T00:17:14.663Z,2.73
2019-01-15T00:19:44.384Z,3.43
2019-01-15T00:22:14.375Z,4.00
2019-01-15T00:24:43.885Z,3.63
2019-01-15T00:27:13.522Z,2.60
2019-01-15T00:29:43.247Z,3.30
2019-01-15T00:32:12.945Z,2.50
2019-01-15T00:34:42.696Z,3.87
2019-01-15T00:37:12.366Z,2.87
2019-01-15T00:39:42.912Z,4.33
2019-01-15T00:42:15.478Z,2.93
2019-01-15T00:44:44.451Z,4.43
2019-01-15T00:47:14.135Z,3.33
2019-01-15T00:49:43.807Z,3.30
2019-01-15T00:52:13.479Z,4.10
2019-01-15T00:54:43.161Z,4.30
2019-01-15T00:57:12.847Z,4.30
2019-01-15T00:59:42.527Z,4.60
2019-01-15T01:02:12.615Z,4.20
2019-01-15T01:04:42.304Z,2.90
2019-01-15T01:07:11.898Z,3.87
2019-01-15T01:09:41.506Z,4.40
2019-01-15T01:12:11.263Z,3.77
2019-01-15T01:14:40.943Z,4.03
2019-01-15T01:17:10.796Z,6.30
2019-01-15T01:19:42.953Z,4.10
2019-01-15T01:22:13.406Z,3.07
2019-01-15T01:24:44.247Z,5.73
2019-01-15T01:27:14.259Z,4.97
2019-01-15T01:29:44.062Z,4.97
2019-01-15T01:32:14.025Z,5.43
2019-01-15T01:34:46.052Z,3.77
2019-01-15T01:37:15.687Z,3.00
2019-01-15T01:39:45.316Z,4.87
2019-01-15T01:42:14.970Z,3.77
2019-01-15T01:44:44.788Z,3.30
2019-01-15T01:47:15.116Z,5.33
2019-01-15T01:49:44.849Z,3.87
2019-01-15T01:52:14.827Z,4.70
2019-01-15T01:54:45.815Z,4.63
2019-01-15T01:57:15.756Z,2.17
2019-01-15T01:59:45.710Z,4.47
2019-01-15T02:02:15.584Z,5.47
2019-01-15T02:04:45.307Z,3.97
2019-01-15T02:07:15.180Z,4.50
2019-01-15T02:09:48.467Z,4.20
2019-01-15T02:12:20.011Z,4.07
2019-01-15T02:14:50.032Z,4.10
2019-01-15T02:17:20.297Z,5.17
2019-01-15T02:19:49.980Z,4.67
2019-01-15T02:22:19.571Z,4.30
2019-01-15T02:24:49.351Z,4.50
2019-01-15T02:27:19.196Z,4.03
2019-01-15T02:29:48.893Z,3.87
2019-01-15T02:32:19.553Z,3.67
2019-01-15T02:34:49.450Z,3.90
2019-01-15T02:37:19.116Z,5.03
2019-01-15T02:39:48.807Z,4.73
2019-01-15T02:42:18.469Z,3.87
2019-01-15T02:44:48.080Z,3.50
2019-01-15T02:47:17.796Z,5.40
2019-01-15T02:49:47.592Z,6.30
2019-01-15T02:52:17.195Z,4.93
2019-01-15T02:54:46.882Z,5.10
2019-01-15T02:57:17.324Z,5.03
2019-01-15T02:59:47.002Z,4.07
2019-01-15T03:02:16.822Z,4.50
2019-01-15T03:04:46.575Z,4.80
2019-01-15T03:07:17.106Z,4.17
2019-01-15T03:09:46.822Z,5.80
2019-01-15T03:12:16.505Z,3.10
2019-01-15T03:14:46.327Z,3.37
2019-01-15T03:17:17.665Z,4.87
2019-01-15T03:19:47.266Z,3.70
2019-01-15T03:22:16.862Z,4.77
2019-01-15T03:24:46.908Z,5.43
2019-01-15T03:27:16.534Z,4.00
2019-01-15T03:29:46.424Z,6.13
2019-01-15T03:32:16.072Z,3.20
2019-01-15T03:34:45.847Z,5.57
2019-01-15T03:37:16.810Z,5.10
2019-01-15T03:39:46.550Z,5.13
2019-01-15T03:42:16.326Z,4.40
2019-01-15T03:44:45.899Z,4.07
2019-01-15T03:47:15.528Z,5.00
2019-01-15T03:49:47.847Z,5.27
2019-01-15T03:52:18.100Z,5.40
2019-01-15T03:54:47.682Z,6.63
2019-01-15T03:57:17.404Z,5.03
2019-01-15T03:59:47.120Z,5.50
2019-01-15T04:02:17.038Z,4.20
2019-01-15T04:04:47.011Z,3.73
2019-01-15T04:07:19.216Z,4.30
2019-01-15T04:09:49.756Z,3.63
2019-01-15T04:12:19.500Z,4.73
2019-01-15T04:14:49.093Z,5.37
2019-01-15T04:17:18.738Z,3.50
2019-01-15T04:19:48.478Z,3.90
2019-01-15T04:22:18.107Z,5.80
2019-01-15T04:24:47.705Z,4.63
2019-01-15T04:27:17.265Z,4.43
2019-01-15T04:29:46.998Z,4.97
2019-01-15T04:32:16.670Z,5.70
2019-01-15T04:34:46.318Z,5.27
2019-01-15T04:37:15.903Z,5.50
2019-01-15T04:39:45.458Z,6.30
2019-01-15T04:42:16.214Z,5.20
2019-01-15T04:44:45.810Z,4.60
2019-01-15T04:47:15.510Z,4.57
2019-01-15T04:49:45.231Z,7.10
2019-01-15T04:52:14.961Z,4.77
2019-01-15T04:54:44.614Z,6.20
2019-01-15T04:57:14.485Z,5.90
2019-01-15T04:59:44.218Z,6.70
2019-01-15T05:02:14.705Z,5.37
2019-01-15T05:04:44.363Z,5.20
2019-01-15T05:07:14.049Z,6.20
2019-01-15T05:09:43.525Z,5.40
2019-01-15T05:12:13.208Z,6.47
2019-01-15T05:14:43.202Z,5.63
2019-01-15T05:17:12.987Z,4.67
2019-01-15T05:19:42.616Z,4.50
2019-01-15T05:22:12.369Z,5.63
2019-01-15T05:24:41.884Z,6.50
2019-01-15T05:27:11.498Z,6.07
2019-01-15T05:29:41.196Z,6.27
2019-01-15T05:32:10.790Z,4.83
2019-01-15T05:34:41.019Z,5.43
2019-01-15T05:37:10.685Z,6.60
2019-01-15T05:39:40.334Z,8.20
2019-01-15T05:42:10.039Z,5.80
2019-01-15T05:44:39.714Z,7.63
2019-01-15T05:47:09.421Z,8.70
2019-01-15T05:49:38.961Z,7.07
2019-01-15T05:52:08.668Z,9.67
2019-01-15T05:54:38.429Z,10.53
2019-01-15T05:57:09.019Z,8.13
2019-01-15T05:59:38.579Z,10.70
2019-01-15T06:02:09.051Z,11.90
2019-01-15T06:04:38.719Z,11.13
2019-01-15T06:07:08.325Z,10.97
2019-01-15T06:09:37.965Z,13.63
2019-01-15T06:12:10.799Z,15.67
2019-01-15T06:14:40.361Z,10.53
2019-01-15T06:17:09.989Z,13.30
2019-01-15T06:19:41.586Z,15.00
2019-01-15T06:22:11.285Z,14.17
2019-01-15T06:24:40.839Z,15.80
2019-01-15T06:27:11.451Z,15.37
2019-01-15T06:29:41.068Z,16.53
2019-01-15T06:32:10.774Z,19.07
2019-01-15T06:34:40.428Z,13.40
2019-01-15T06:37:10.179Z,16.83
2019-01-15T06:39:40.724Z,20.07
2019-01-15T06:42:10.551Z,16.83
2019-01-15T06:44:40.149Z,21.30
2019-01-15T06:47:09.798Z,23.37
2019-01-15T06:49:39.551Z,18.57
2019-01-15T06:52:09.056Z,20.27
2019-01-15T06:57:00.348Z,15.97
2019-01-15T06:59:29.951Z,20.67
2019-01-15T07:01:59.631Z,21.20
2019-01-15T07:04:29.351Z,22.53
2019-01-15T07:06:58.951Z,22.63
2019-01-15T07:09:28.562Z,17.17
2019-01-15T07:11:58.235Z,23.47
2019-01-15T07:14:27.876Z,23.43
2019-01-15T07:16:57.556Z,28.27
2019-01-15T07:19:27.136Z,24.53
2019-01-15T07:21:56.895Z,25.40
2019-01-15T07:24:26.574Z,25.20
2019-01-15T07:26:56.244Z,24.10
2019-01-15T07:29:25.946Z,24.77
2019-01-15T07:31:55.625Z,26.37
2019-01-15T07:34:25.326Z,19.43
2019-01-15T07:36:55.040Z,27.23
2019-01-15T07:39:24.728Z,27.83
2019-01-15T07:41:56.461Z,24.70
2019-01-15T07:44:27.150Z,28.50
2019-01-15T07:46:56.746Z,27.77
2019-01-15T07:49:26.470Z,28.03
2019-01-15T07:51:56.085Z,29.37
2019-01-15T07:54:26.679Z,28.03
2019-01-15T07:56:56.481Z,26.80
2019-01-15T07:59:26.060Z,28.17
2019-01-15T08:01:56.243Z,28.83
2019-01-15T08:04:26.096Z,29.00
2019-01-15T08:06:55.800Z,24.27
2019-01-15T08:09:25.374Z,16.33
2019-01-15T08:11:57.272Z,26.47
2019-01-15T08:14:26.998Z,29.37
2019-01-15T08:16:58.803Z,17.90
2019-01-15T08:19:30.390Z,27.10
2019-01-15T08:22:04.185Z,24.20
2019-01-15T08:24:33.594Z,26.53
2019-01-15T08:27:08.674Z,31.47
2019-01-15T08:29:39.718Z,29.10
2019-01-15T08:32:09.470Z,24.53
2019-01-15T08:34:39.097Z,22.60
2019-01-15T08:37:08.797Z,24.40
2019-01-15T08:40:01.645Z,28.00
2019-01-15T08:42:31.346Z,18.57
2019-01-15T08:45:00.968Z,27.37
2019-01-15T08:47:36.862Z,25.80
2019-01-15T08:50:09.205Z,27.30
2019-01-15T08:52:38.874Z,29.67
2019-01-15T08:55:08.512Z,27.37
2019-01-15T08:57:38.380Z,22.77
2019-01-15T09:00:09.093Z,26.67
2019-01-15T09:02:38.786Z,22.53
2019-01-15T09:05:08.398Z,23.77
2019-01-15T09:07:38.041Z,23.50
2019-01-15T09:10:09.321Z,21.73
2019-01-15T09:12:39.061Z,23.17
2019-01-15T09:15:10.477Z,20.13
2019-01-15T09:17:40.254Z,18.80
2019-01-15T09:20:14.391Z,19.40
2019-01-15T09:22:44.089Z,21.67
2019-01-15T09:25:13.986Z,24.57
2019-01-15T09:27:43.708Z,18.37
2019-01-15T09:30:16.416Z,24.00
2019-01-15T09:32:46.329Z,18.87
2019-01-15T09:35:16.047Z,23.40
2019-01-15T09:37:47.330Z,24.00
2019-01-15T09:40:19.830Z,19.50
2019-01-15T09:42:49.433Z,16.37
2019-01-15T09:45:20.666Z,16.03
2019-01-15T09:47:54.999Z,17.83
2019-01-15T09:50:24.485Z,19.93
2019-01-15T09:52:54.172Z,18.83
2019-01-15T09:55:23.700Z,16.30
2019-01-15T09:57:53.268Z,10.23
2019-01-15T10:00:23.373Z,18.13
2019-01-15T10:02:53.087Z,19.80
2019-01-15T10:05:22.637Z,16.90
2019-01-15T10:07:52.133Z,11.80
2019-01-15T10:10:21.786Z,19.80
2019-01-15T10:12:51.386Z,17.30
2019-01-15T10:15:20.991Z,18.17
2019-01-15T10:17:50.453Z,9.77
2019-01-15T10:20:20.181Z,16.70
2019-01-15T10:22:50.219Z,13.53
2019-01-15T10:25:24.812Z,13.60
2019-01-15T10:27:55.279Z,13.17
2019-01-15T10:30:34.507Z,9.00
2019-01-15T10:33:28.077Z,14.73
2019-01-15T10:35:56.750Z,13.73
2019-01-15T10:38:28.102Z,11.47
2019-01-15T10:40:58.732Z,14.10
2019-01-15T10:43:30.315Z,14.50
2019-01-15T10:46:00.375Z,10.50
2019-01-15T10:48:29.966Z,8.90
2019-01-15T10:50:59.657Z,11.03
2019-01-15T10:53:29.344Z,10.87
2019-01-15T10:55:58.977Z,9.20
2019-01-15T10:58:28.661Z,10.00
2019-01-15T11:00:58.187Z,5.90
2019-01-15T11:03:27.743Z,7.60
2019-01-15T11:05:57.276Z,10.43
2019-01-15T11:08:26.917Z,7.33
2019-01-15T11:10:56.549Z,8.77
2019-01-15T11:13:26.242Z,9.07
2019-01-15T11:15:55.847Z,10.70
2019-01-15T11:18:25.350Z,9.40
2019-01-15T11:20:55.063Z,8.43
2019-01-15T11:23:24.603Z,7.53
2019-01-15T11:25:54.260Z,8.60
2019-01-15T11:28:24.024Z,9.90
2019-01-15T11:30:53.613Z,9.43
2019-01-15T11:33:23.321Z,10.23
2019-01-15T11:35:52.938Z,7.27
2019-01-15T11:38:22.463Z,11.90
2019-01-15T11:40:52.225Z,9.70
2019-01-15T11:43:22.173Z,8.93
2019-01-15T11:45:52.010Z,11.30
2019-01-15T11:48:21.682Z,6.70
2019-01-15T11:50:51.279Z,9.70
2019-01-15T11:53:20.938Z,11.00
2019-01-15T11:55:50.477Z,9.00
2019-01-15T11:58:20.060Z,10.67
2019-01-15T12:00:55.922Z,9.13
2019-01-15T12:03:44.670Z,9.80
2019-01-15T12:06:51.440Z,11.33
2019-01-15T12:09:51.695Z,10.10
2019-01-15T12:12:42.708Z,12.47
2019-01-15T12:15:34.200Z,12.80
2019-01-15T12:18:25.784Z,12.87
2019-01-15T12:21:20.284Z,11.80
2019-01-15T12:24:07.686Z,9.77
2019-01-15T12:27:11.211Z,11.77
2019-01-15T12:29:53.179Z,9.77
2019-01-15T12:32:40.621Z,9.50
2019-01-15T12:35:35.919Z,12.80
2019-01-15T12:38:17.279Z,13.20
2019-01-15T12:41:15.187Z,15.37
2019-01-15T12:43:57.531Z,14.17
2019-01-15T12:46:45.608Z,13.53
2019-01-15T12:49:52.367Z,11.73
2019-01-15T12:52:39.806Z,14.50
2019-01-15T12:55:32.650Z,11.83
2019-01-15T12:58:27.266Z,12.73
2019-01-15T13:01:17.297Z,11.83
2019-01-15T13:04:04.838Z,10.00
2019-01-15T13:07:11.439Z,8.17
2019-01-15T13:10:15.338Z,10.10
2019-01-15T13:13:18.712Z,12.37
2019-01-15T13:15:58.270Z,11.23
2019-01-15T13:18:50.871Z,12.60
2019-01-15T13:21:39.930Z,11.40
2019-01-15T13:24:41.879Z,10.37
2019-01-15T13:27:48.951Z,12.60
2019-01-15T13:30:52.281Z,22.03
2019-01-15T13:33:50.046Z,13.97
2019-01-15T13:36:47.298Z,19.20
2019-01-15T13:39:35.889Z,11.43
2019-01-15T13:42:30.677Z,12.00
2019-01-15T13:45:34.158Z,9.07
2019-01-15T13:48:21.399Z,11.57
2019-01-15T13:51:08.622Z,11.10
2019-01-15T13:54:15.726Z,10.50
2019-01-15T13:57:13.082Z,9.77
2019-01-15T13:59:55.331Z,12.73
2019-01-15T14:02:46.592Z,10.60
2019-01-15T14:05:44.217Z,11.47
2019-01-15T14:08:33.865Z,11.33
2019-01-15T14:11:25.331Z,8.17
2019-01-15T14:14:14.937Z,9.83
2019-01-15T14:17:19.029Z,13.00
2019-01-15T14:20:16.558Z,9.23
2019-01-15T14:23:03.929Z,9.90
2019-01-15T14:25:55.690Z,11.17
2019-01-15T14:28:56.009Z,8.17
2019-01-15T14:31:42.998Z,7.40
2019-01-15T14:34:31.553Z,7.70
2019-01-15T14:37:26.173Z,10.50
2019-01-15T14:40:32.876Z,9.90
2019-01-15T14:43:20.357Z,8.50
2019-01-15T14:46:23.823Z,8.10
2019-01-15T14:49:18.565Z,9.27
2019-01-15T14:52:19.106Z,8.07
2019-01-15T14:55:24.228Z,11.43
2019-01-15T14:58:12.668Z,8.80
2019-01-15T15:01:01.069Z,7.57
2019-01-15T15:03:52.547Z,10.70
2019-01-15T15:06:40.890Z,9.77
2019-01-15T15:09:38.887Z,11.43
2019-01-15T15:12:36.681Z,8.73
2019-01-15T15:15:26.029Z,7.20
2019-01-15T15:18:11.128Z,5.40
2019-01-15T15:21:17.708Z,10.10
2019-01-15T15:24:10.136Z,11.87
2019-01-15T15:27:10.714Z,8.13
2019-01-15T15:30:04.943Z,8.57
2019-01-15T15:32:52.116Z,9.40
2019-01-15T15:35:45.308Z,7.43
2019-01-15T15:38:33.901Z,11.03
2019-01-15T15:41:32.138Z,8.73
2019-01-15T15:44:25.002Z,9.17
2019-01-15T15:47:13.451Z,9.73
2019-01-15T15:50:10.678Z,7.60
2019-01-15T15:53:05.302Z,8.23
2019-01-15T15:55:54.707Z,10.83
2019-01-15T15:58:39.992Z,9.47
2019-01-15T16:01:37.393Z,4.60
2019-01-15T16:04:24.541Z,7.00
2019-01-15T16:11:31.191Z,9.97
2019-01-15T16:15:21.259Z,8.47
2019-01-15T16:23:03.000Z,9.10
2019-01-15T16:33:46.368Z,10.17
2019-01-15T16:36:47.588Z,10.00
2019-01-15T16:39:48.350Z,9.90
2019-01-15T16:42:43.929Z,8.63
2019-01-15T16:52:28.446Z,7.30
2019-01-15T16:55:34.117Z,10.00
2019-01-15T16:58:51.229Z,11.30
2019-01-15T17:02:44.850Z,10.87
2019-01-15T17:10:18.248Z,7.10
2019-01-15T17:17:18.612Z,11.17
2019-01-15T17:19:58.230Z,8.27
2019-01-15T17:23:18.359Z,9.93
2019-01-15T17:29:49.915Z,9.53
2019-01-15T17:32:50.403Z,7.03
2019-01-15T17:39:14.377Z,8.43
2019-01-15T17:42:10.029Z,10.73
2019-01-15T17:45:04.324Z,7.20
2019-01-15T17:48:08.515Z,8.30
2019-01-15T17:51:25.922Z,8.57
2019-01-15T17:54:19.965Z,8.20
2019-01-15T17:57:16.193Z,6.00
2019-01-15T18:00:13.087Z,7.63
2019-01-15T18:03:02.098Z,9.00
2019-01-15T18:05:50.714Z,8.00
2019-01-15T18:08:34.091Z,9.27
2019-01-15T18:11:36.759Z,8.23
2019-01-15T18:14:27.123Z,8.37
2019-01-15T18:17:23.589Z,9.00
2019-01-15T18:20:08.012Z,10.00
2019-01-15T18:23:02.528Z,6.77
2019-01-15T18:25:49.908Z,9.60
2019-01-15T18:28:40.257Z,11.40
2019-01-15T18:31:28.939Z,9.30
2019-01-15T18:34:17.997Z,8.80
2019-01-15T18:37:22.304Z,7.00
2019-01-15T18:40:18.040Z,10.73
2019-01-15T18:49:47.822Z,10.97
2019-01-15T18:52:40.761Z,9.40
2019-01-15T18:55:42.451Z,8.77
2019-01-15T19:01:50.022Z,4.43
2019-01-15T19:04:49.059Z,9.90
2019-01-15T19:07:36.519Z,12.17
2019-01-15T19:13:29.106Z,17.53
2019-01-15T19:16:31.679Z,14.23
2019-01-15T19:19:20.427Z,13.90
2019-01-15T19:22:09.042Z,17.27
2019-01-15T19:24:54.956Z,15.10
2019-01-15T19:27:52.932Z,14.90
2019-01-15T19:30:41.840Z,16.13
2019-01-15T19:33:29.657Z,11.77
2019-01-15T19:36:18.146Z,17.90
2019-01-15T19:39:05.749Z,14.53
2019-01-15T19:42:01.297Z,12.70
2019-01-15T19:45:05.854Z,16.83
2019-01-15T19:47:53.516Z,17.57
2019-01-15T19:51:00.579Z,15.87
2019-01-15T19:53:47.985Z,20.23
2019-01-15T19:56:36.964Z,20.27
2019-01-15T19:59:28.782Z,18.73
2019-01-15T20:02:17.955Z,19.50
2019-01-15T20:05:09.965Z,20.33
2019-01-15T20:07:57.695Z,17.00
2019-01-15T20:11:04.896Z,20.20
2019-01-15T20:13:52.273Z,19.37
2019-01-15T20:16:59.502Z,19.10
2019-01-15T20:20:03.418Z,23.23
2019-01-15T20:22:58.357Z,17.87
2019-01-15T20:25:37.788Z,15.40
2019-01-15T20:28:29.787Z,20.17
2019-01-15T20:31:09.681Z,18.10
2019-01-15T20:34:04.576Z,16.90
2019-01-15T20:36:52.459Z,15.70
2019-01-15T20:39:36.207Z,19.00
2019-01-15T20:42:28.211Z,16.20
2019-01-15T20:45:17.127Z,18.03
2019-01-15T20:48:05.001Z,11.90
2019-01-15T20:50:52.423Z,16.63
2019-01-15T20:53:47.725Z,17.07
2019-01-15T20:56:35.211Z,17.47
2019-01-15T20:59:22.768Z,14.13
2019-01-15T21:02:17.783Z,16.00
2019-01-15T21:05:11.807Z,13.60
2019-01-15T21:08:09.672Z,16.60
2019-01-15T21:11:02.505Z,16.47
2019-01-15T21:14:03.767Z,15.37
2019-01-15T21:16:54.458Z,8.63
2019-01-15T21:19:42.149Z,16.33
2019-01-15T21:22:43.041Z,16.47
2019-01-15T21:25:30.449Z,17.37
2019-01-15T21:28:17.779Z,15.80
2019-01-15T21:31:06.902Z,14.17
2019-01-15T21:34:06.170Z,15.63
2019-01-15T21:37:07.169Z,18.00
2019-01-15T21:39:58.644Z,14.33
2019-01-15T21:42:42.880Z,12.80
2019-01-15T21:45:31.551Z,12.33
2019-01-15T21:48:28.991Z,14.60
2019-01-15T21:51:16.406Z,11.73
2019-01-15T21:54:03.568Z,13.37
2019-01-15T21:56:42.439Z,9.37
2019-01-15T21:59:36.841Z,13.80
2019-01-15T22:02:25.389Z,13.90
2019-01-15T22:05:32.139Z,15.67
2019-01-15T22:08:19.466Z,15.07
2019-01-15T22:11:07.286Z,10.73
2019-01-15T22:14:08.047Z,9.67
2019-01-15T22:16:51.587Z,17.13
2019-01-15T22:19:42.788Z,14.37
2019-01-15T22:22:37.098Z,12.60
2019-01-15T22:25:25.187Z,15.40
2019-01-15T22:28:28.894Z,18.53
2019-01-15T22:31:20.118Z,14.73
2019-01-15T22:34:03.398Z,15.80
2019-01-15T22:37:10.229Z,17.90
2019-01-15T22:39:58.275Z,17.13
2019-01-15T22:43:02.195Z,14.93
2019-01-15T22:45:59.641Z,15.27
2019-01-15T22:48:54.578Z,16.80
2019-01-15T22:51:43.077Z,11.87
2019-01-15T22:54:40.910Z,13.27
2019-01-15T22:57:28.438Z,13.50
2019-01-15T23:00:15.695Z,15.40
2019-01-15T23:03:13.035Z,12.10
2019-01-15T23:05:55.057Z,15.07
2019-01-15T23:08:41.851Z,12.93
2019-01-15T23:11:30.239Z,11.00
2019-01-15T23:14:18.761Z,11.63
2019-01-15T23:17:19.798Z,7.40
2019-01-15T23:20:20.658Z,11.73
2019-01-15T23:23:07.818Z,12.30
2019-01-15T23:25:46.742Z,10.77
2019-01-15T23:28:33.881Z,12.43
2019-01-15T23:31:21.357Z,12.87
2019-01-15T23:34:12.587Z,10.70
2019-01-15T23:37:00.724Z,11.40
2019-01-15T23:39:43.154Z,13.23
2019-01-15T23:42:34.613Z,12.90
2019-01-15T23:45:23.434Z,11.93
2019-01-15T23:48:12.327Z,13.40
2019-01-15T23:51:09.760Z,15.13
2019-01-15T23:54:16.398Z,14.13
2019-01-15T23:57:07.861Z,12.40
2019-01-15T23:59:55.364Z,12.73
